Time;durP1;ratioP1;P1;durP2;ratioP2;P2;SDS_P1;SDS_P2;PMS_P1;PMS_P2;Temp;Humidity;BMP_temperature;BMP_pressure;BME280_temperature;BME280_humidity;BME280_pressure;Samples;Min_cycle;Max_cycle;Signal;HPM_P1;HPM_P2
2021/12/03 00:00:53;;;;;;;4.60;1.90;;;-1.50;99.90;;;;;;5158216;28;20199;-49
2021/12/03 00:03:24;;;;;;;9.77;2.53;;;-1.50;99.90;;;;;;5150992;28;20196;-51
2021/12/03 00:05:57;;;;;;;16.63;3.40;;;-1.50;99.90;;;;;;5154507;28;20440;-50
2021/12/03 00:08:27;;;;;;;13.00;2.03;;;-1.60;99.90;;;;;;5160985;28;20440;-50
2021/12/03 00:11:01;;;;;;;10.13;2.27;;;-1.50;99.90;;;;;;5160946;28;20431;-49
2021/12/03 00:13:33;;;;;;;3.30;2.10;;;-1.50;99.90;;;;;;5157315;28;20303;-51
2021/12/03 00:16:04;;;;;;;4.50;1.97;;;-1.50;99.90;;;;;;5143316;28;20459;-49
2021/12/03 00:18:35;;;;;;;12.77;2.90;;;-1.50;99.90;;;;;;5160726;28;20482;-49
2021/12/03 00:21:08;;;;;;;3.00;1.87;;;-1.50;99.90;;;;;;5159762;28;20506;-49
2021/12/03 00:23:40;;;;;;;4.47;2.20;;;-1.50;99.90;;;;;;5160655;28;20937;-50
2021/12/03 00:26:11;;;;;;;3.57;2.20;;;-1.60;99.90;;;;;;5161158;28;20428;-48
2021/12/03 00:28:42;;;;;;;4.30;2.23;;;-1.50;99.90;;;;;;5159298;28;20801;-48
2021/12/03 00:31:13;;;;;;;7.53;2.23;;;-1.50;99.90;;;;;;5160433;28;20584;-49
2021/12/03 00:33:43;;;;;;;5.80;2.70;;;-1.50;99.90;;;;;;5162696;28;20301;-49
2021/12/03 00:36:14;;;;;;;10.23;1.83;;;-1.50;99.90;;;;;;5162741;28;20570;-49
2021/12/03 00:38:48;;;;;;;8.70;1.70;;;-1.50;99.90;;;;;;5159134;28;20181;-48
2021/12/03 00:41:20;;;;;;;12.00;2.53;;;-1.50;99.90;;;;;;5160624;28;20696;-48
2021/12/03 00:43:53;;;;;;;10.33;2.00;;;-1.60;99.90;;;;;;5161436;28;20458;-49
2021/12/03 00:46:23;;;;;;;4.80;2.17;;;-1.60;99.90;;;;;;5159228;28;20449;-48
2021/12/03 00:48:55;;;;;;;3.50;1.87;;;-1.60;99.90;;;;;;5158113;28;20444;-49
2021/12/03 00:51:26;;;;;;;1.83;1.70;;;-1.60;99.90;;;;;;5159312;28;20576;-48
2021/12/03 00:53:57;;;;;;;5.10;2.10;;;-1.70;99.90;;;;;;5158290;28;20575;-49
2021/12/03 00:56:28;;;;;;;2.27;1.67;;;-1.60;99.90;;;;;;5160343;28;20527;-48
2021/12/03 00:58:58;;;;;;;3.83;2.37;;;-1.70;99.90;;;;;;5165521;28;20544;-48
2021/12/03 01:01:29;;;;;;;2.17;1.83;;;-1.60;99.90;;;;;;5164722;28;20212;-49
2021/12/03 01:04:00;;;;;;;3.50;1.50;;;-1.60;99.90;;;;;;5162965;28;20200;-48
2021/12/03 01:06:30;;;;;;;3.90;1.70;;;-1.60;99.90;;;;;;5154025;28;20196;-48
2021/12/03 01:09:02;;;;;;;3.43;2.13;;;-1.60;99.90;;;;;;5156510;28;20188;-49
2021/12/03 01:11:33;;;;;;;2.47;2.27;;;-1.60;99.90;;;;;;5164567;28;21805;-50
2021/12/03 01:14:04;;;;;;;2.40;2.07;;;-1.50;99.90;;;;;;5147996;28;20562;-48
2021/12/03 01:16:35;;;;;;;3.20;1.30;;;-1.50;99.90;;;;;;5163386;28;20185;-48
2021/12/03 01:19:05;;;;;;;5.90;1.70;;;-1.50;99.90;;;;;;5161896;28;20794;-48
2021/12/03 01:21:37;;;;;;;4.70;1.70;;;-1.50;99.90;;;;;;5160322;28;20216;-50
2021/12/03 01:24:08;;;;;;;16.00;1.93;;;-1.50;99.90;;;;;;5160912;28;20748;-48
2021/12/03 01:26:41;;;;;;;2.27;2.07;;;-1.50;99.90;;;;;;5164911;28;20427;-50
2021/12/03 01:29:12;;;;;;;12.40;2.53;;;-1.50;99.90;;;;;;5162602;28;20427;-49
2021/12/03 01:31:42;;;;;;;5.30;1.47;;;-1.50;99.90;;;;;;5161720;28;20536;-49
2021/12/03 01:34:14;;;;;;;5.30;2.03;;;-1.50;99.90;;;;;;5160693;28;20245;-49
2021/12/03 01:36:45;;;;;;;3.37;2.63;;;-1.50;99.90;;;;;;5163710;28;20664;-48
2021/12/03 01:39:15;;;;;;;2.00;1.63;;;-1.40;99.90;;;;;;5160696;28;20523;-49
2021/12/03 01:41:46;;;;;;;2.30;1.80;;;-1.40;99.90;;;;;;5163143;28;20244;-49
2021/12/03 01:44:17;;;;;;;4.67;1.77;;;-1.40;99.90;;;;;;5163930;28;20208;-50
2021/12/03 01:46:47;;;;;;;1.73;1.60;;;-1.40;99.90;;;;;;5163177;28;20501;-47
2021/12/03 01:49:18;;;;;;;2.53;1.07;;;-1.40;99.90;;;;;;5161181;28;20189;-50
2021/12/03 01:51:49;;;;;;;6.53;2.20;;;-1.30;99.90;;;;;;5164373;28;20212;-49
2021/12/03 01:54:20;;;;;;;2.20;1.50;;;-1.30;99.90;;;;;;5161771;28;20267;-49
2021/12/03 01:56:50;;;;;;;3.53;1.57;;;-1.20;99.90;;;;;;5162486;28;20925;-49
2021/12/03 01:59:21;;;;;;;4.40;1.70;;;-1.10;99.90;;;;;;5163284;28;20207;-49
2021/12/03 02:01:52;;;;;;;3.40;2.33;;;-1.10;99.90;;;;;;5164929;28;20207;-48
2021/12/03 02:04:22;;;;;;;6.00;2.30;;;-1.10;99.90;;;;;;5158555;28;20215;-49
2021/12/03 02:06:53;;;;;;;2.13;1.90;;;-1.00;99.90;;;;;;5140832;28;20554;-48
2021/12/03 02:09:23;;;;;;;2.50;2.30;;;-1.00;99.90;;;;;;5163035;28;20189;-49
2021/12/03 02:11:54;;;;;;;8.33;2.37;;;-1.10;99.90;;;;;;5162374;28;20184;-49
2021/12/03 02:14:25;;;;;;;6.30;2.80;;;-1.00;99.90;;;;;;5145341;28;20217;-50
2021/12/03 02:16:55;;;;;;;2.27;2.13;;;-0.90;99.90;;;;;;5164621;28;20190;-49
2021/12/03 02:19:28;;;;;;;2.70;2.50;;;-0.80;99.90;;;;;;5161022;28;20696;-49
2021/12/03 02:21:58;;;;;;;1.70;1.60;;;-0.80;99.90;;;;;;5163352;28;20189;-49
2021/12/03 02:24:30;;;;;;;5.07;2.27;;;-0.60;99.90;;;;;;5163615;28;20960;-49
2021/12/03 02:27:01;;;;;;;5.40;3.27;;;-0.60;99.90;;;;;;5161245;28;20177;-48
2021/12/03 02:29:32;;;;;;;2.77;1.93;;;-0.60;99.90;;;;;;5158522;28;20439;-50
2021/12/03 02:32:03;;;;;;;2.93;2.27;;;-0.60;99.90;;;;;;5142883;28;20192;-51
2021/12/03 02:34:36;;;;;;;4.30;2.50;;;-0.70;99.90;;;;;;5171631;23;20232;-48
2021/12/03 02:37:06;;;;;;;3.70;2.33;;;-0.70;99.90;;;;;;5142026;28;20868;-48
2021/12/03 02:39:37;;;;;;;5.27;2.53;;;-0.70;99.90;;;;;;5159014;28;20531;-48
2021/12/03 02:42:07;;;;;;;4.60;2.73;;;-0.80;99.90;;;;;;5162411;28;20181;-48
2021/12/03 02:44:38;;;;;;;5.43;2.20;;;-0.80;99.90;;;;;;5158861;28;20204;-48
2021/12/03 02:47:09;;;;;;;4.70;2.60;;;-0.80;99.90;;;;;;5161348;28;20228;-49
2021/12/03 02:49:41;;;;;;;8.10;3.70;;;-0.70;99.90;;;;;;5155319;28;20638;-48
2021/12/03 02:52:12;;;;;;;6.07;2.23;;;-0.70;99.90;;;;;;5159376;28;20177;-49
2021/12/03 02:54:42;;;;;;;2.70;2.50;;;-0.50;99.90;;;;;;5175135;28;20570;-48
2021/12/03 02:57:13;;;;;;;8.80;2.50;;;-0.40;99.90;;;;;;5161160;28;20250;-48
2021/12/03 02:59:43;;;;;;;4.27;2.53;;;-0.40;99.90;;;;;;5154342;28;20181;-49
2021/12/03 03:02:14;;;;;;;2.57;2.40;;;-0.40;99.90;;;;;;5145498;28;20192;-49
2021/12/03 03:04:45;;;;;;;7.77;2.30;;;-0.30;99.90;;;;;;5158485;28;20197;-49
2021/12/03 03:07:15;;;;;;;4.57;2.80;;;-0.30;99.90;;;;;;5159400;28;20172;-50
2021/12/03 03:09:46;;;;;;;2.93;2.30;;;-0.30;99.90;;;;;;5159087;28;20190;-50
2021/12/03 03:12:17;;;;;;;3.43;2.13;;;-0.30;99.90;;;;;;5143038;28;20208;-49
2021/12/03 03:14:53;;;;;;;2.47;2.30;;;-0.40;99.90;;;;;;5160146;28;20288;-49
2021/12/03 03:17:27;;;;;;;3.40;2.03;;;-0.50;99.90;;;;;;5159493;28;20578;-50
2021/12/03 03:19:59;;;;;;;3.70;2.10;;;-0.50;99.90;;;;;;5158039;28;20467;-48
2021/12/03 03:22:30;;;;;;;5.87;2.33;;;-0.60;99.90;;;;;;5158775;28;20428;-49
2021/12/03 03:25:00;;;;;;;2.80;1.93;;;-0.70;99.90;;;;;;5161368;28;20467;-49
2021/12/03 03:27:31;;;;;;;6.37;2.60;;;-0.70;99.90;;;;;;5158982;28;20908;-48
2021/12/03 03:30:04;;;;;;;3.10;1.83;;;-0.70;99.90;;;;;;5160574;28;20215;-49
2021/12/03 03:32:35;;;;;;;2.97;2.23;;;-0.60;99.90;;;;;;5176234;28;20264;-48
2021/12/03 03:35:06;;;;;;;4.63;2.03;;;-0.70;99.90;;;;;;5160121;28;20542;-49
2021/12/03 03:37:37;;;;;;;2.00;1.90;;;-0.70;99.90;;;;;;5159121;28;20454;-49
2021/12/03 03:40:09;;;;;;;10.00;2.50;;;-0.70;99.90;;;;;;5158989;28;20456;-48
2021/12/03 03:42:40;;;;;;;5.97;1.70;;;-0.70;99.90;;;;;;5160898;28;20500;-48
2021/12/03 03:45:13;;;;;;;5.50;1.90;;;-0.60;99.90;;;;;;5160202;28;20807;-49
2021/12/03 03:47:45;;;;;;;2.50;1.80;;;-0.60;99.90;;;;;;5174861;28;20216;-50
2021/12/03 03:50:18;;;;;;;5.10;1.73;;;-0.70;99.90;;;;;;5156714;28;20436;-49
2021/12/03 03:52:51;;;;;;;5.27;2.40;;;-0.70;99.90;;;;;;5162929;28;20502;-49
2021/12/03 03:55:23;;;;;;;3.63;2.97;;;-0.70;99.90;;;;;;5157997;28;20877;-48
2021/12/03 03:57:56;;;;;;;2.20;1.80;;;-0.80;99.90;;;;;;5160593;28;20768;-48
2021/12/03 04:00:40;;;;;;;2.47;2.27;;;-0.80;99.90;;;;;;5156642;28;20472;-49
2021/12/03 04:03:11;;;;;;;2.80;2.20;;;-0.80;99.90;;;;;;5158055;28;20590;-49
2021/12/03 04:05:42;;;;;;;3.03;2.03;;;-0.80;99.90;;;;;;5159746;28;20882;-49
2021/12/03 04:08:13;;;;;;;2.37;2.17;;;-0.70;99.90;;;;;;5160217;28;21195;-49
2021/12/03 04:10:44;;;;;;;8.33;2.70;;;-0.70;99.90;;;;;;5156942;28;20194;-50
2021/12/03 04:13:15;;;;;;;5.40;2.50;;;-0.70;99.90;;;;;;5160209;28;20464;-49
2021/12/03 04:15:45;;;;;;;4.83;2.20;;;-0.60;99.90;;;;;;5161399;28;20437;-49
2021/12/03 04:18:16;;;;;;;8.60;2.40;;;-0.50;99.90;;;;;;5157901;28;20312;-50
2021/12/03 04:20:47;;;;;;;5.07;3.37;;;-0.50;99.90;;;;;;5159345;28;20204;-49
2021/12/03 04:23:19;;;;;;;9.10;2.90;;;-0.30;99.90;;;;;;5160396;28;20468;-48
2021/12/03 04:25:50;;;;;;;7.80;2.57;;;-0.30;99.90;;;;;;5160269;28;20181;-48
2021/12/03 04:28:22;;;;;;;9.63;1.83;;;-0.20;99.90;;;;;;5159797;28;20440;-49
2021/12/03 04:30:53;;;;;;;5.70;2.90;;;-0.20;99.90;;;;;;5161035;28;20185;-49
2021/12/03 04:33:23;;;;;;;8.13;3.30;;;-0.20;99.90;;;;;;5160538;28;20819;-48
2021/12/03 04:35:54;;;;;;;2.27;2.07;;;-0.10;99.90;;;;;;5158855;28;20433;-48
2021/12/03 04:38:25;;;;;;;3.13;2.23;;;-0.10;99.90;;;;;;5160834;28;20633;-49
2021/12/03 04:40:56;;;;;;;11.73;2.20;;;-0.10;99.90;;;;;;5160420;28;20285;-49
2021/12/03 04:43:26;;;;;;;9.13;2.20;;;-0.20;99.90;;;;;;5155642;28;20664;-50
2021/12/03 04:45:57;;;;;;;6.53;2.10;;;-0.20;99.90;;;;;;5159421;28;20197;-48
2021/12/03 04:48:27;;;;;;;4.83;2.30;;;-0.30;99.90;;;;;;5161837;28;20192;-48
2021/12/03 04:50:59;;;;;;;2.67;2.23;;;-0.40;99.90;;;;;;5156932;28;20188;-48
2021/12/03 04:53:29;;;;;;;3.53;2.30;;;-0.30;99.90;;;;;;5157639;28;20320;-49
2021/12/03 04:56:00;;;;;;;7.03;2.77;;;-0.30;99.90;;;;;;5162491;28;20920;-48
2021/12/03 04:58:31;;;;;;;1.70;1.57;;;-0.30;99.90;;;;;;5159563;28;20613;-49
2021/12/03 05:01:02;;;;;;;8.07;2.87;;;-0.40;99.90;;;;;;5157909;28;20202;-48
2021/12/03 05:03:32;;;;;;;8.43;2.37;;;-0.40;99.90;;;;;;5160342;28;20542;-49
2021/12/03 05:06:07;;;;;;;3.07;1.97;;;-0.40;99.90;;;;;;5160550;28;20440;-48
2021/12/03 05:08:38;;;;;;;11.60;2.57;;;-0.30;99.90;;;;;;5159463;28;20171;-48
2021/12/03 05:11:09;;;;;;;3.83;2.13;;;-0.40;99.90;;;;;;5159428;28;20456;-48
2021/12/03 05:13:39;;;;;;;3.70;2.27;;;-0.30;99.90;;;;;;5155865;28;20212;-48
2021/12/03 05:16:10;;;;;;;8.57;2.77;;;-0.40;99.90;;;;;;5159651;28;20541;-49
2021/12/03 05:18:44;;;;;;;2.60;2.30;;;-0.40;99.90;;;;;;5158338;28;20181;-47
2021/12/03 05:21:15;;;;;;;2.17;2.07;;;-0.30;99.90;;;;;;5160716;28;20232;-49
2021/12/03 05:23:45;;;;;;;3.50;2.20;;;-0.40;99.90;;;;;;5156747;28;20498;-48
2021/12/03 05:26:16;;;;;;;2.50;1.93;;;-0.50;99.90;;;;;;5157402;28;20448;-48
2021/12/03 05:28:46;;;;;;;5.57;2.50;;;-0.40;99.90;;;;;;5158691;28;20204;-48
2021/12/03 05:31:17;;;;;;;3.43;2.13;;;-0.50;99.90;;;;;;5173211;28;20697;-48
2021/12/03 05:33:47;;;;;;;2.07;1.97;;;-0.50;99.90;;;;;;5159732;28;20244;-48
2021/12/03 05:36:18;;;;;;;1.80;1.70;;;-0.60;99.90;;;;;;5157505;28;20192;-49
2021/12/03 05:38:49;;;;;;;5.87;2.00;;;-0.60;99.90;;;;;;5172288;28;20173;-49
2021/12/03 05:41:19;;;;;;;2.40;1.67;;;-0.40;99.90;;;;;;5160936;28;20311;-49
2021/12/03 05:43:50;;;;;;;8.60;2.10;;;-0.50;99.90;;;;;;5159806;28;20200;-47
2021/12/03 05:46:20;;;;;;;3.00;2.77;;;-0.50;99.90;;;;;;5178402;28;20177;-47
2021/12/03 05:48:51;;;;;;;4.97;2.97;;;-0.50;99.90;;;;;;5162830;28;20196;-48
2021/12/03 05:51:22;;;;;;;2.97;2.67;;;-0.60;99.90;;;;;;5162347;28;20177;-48
2021/12/03 05:53:53;;;;;;;3.90;1.80;;;-0.60;99.90;;;;;;5159393;28;20205;-49
2021/12/03 05:56:24;;;;;;;4.90;3.17;;;-0.70;99.90;;;;;;5161456;28;20603;-48
2021/12/03 05:58:54;;;;;;;6.30;3.13;;;-0.70;99.90;;;;;;5161038;28;20967;-48
2021/12/03 06:01:25;;;;;;;2.97;2.33;;;-0.60;99.90;;;;;;5156516;28;20471;-48
2021/12/03 06:03:56;;;;;;;4.33;2.57;;;-0.60;99.90;;;;;;5159089;28;20603;-47
2021/12/03 06:06:26;;;;;;;9.50;2.80;;;-0.60;99.90;;;;;;5160980;28;20193;-49
2021/12/03 06:08:58;;;;;;;6.27;2.80;;;-0.70;99.90;;;;;;5161637;28;20205;-49
2021/12/03 06:11:28;;;;;;;2.77;2.10;;;-0.60;99.90;;;;;;5159705;28;20181;-49
2021/12/03 06:13:59;;;;;;;4.70;2.37;;;-0.60;99.90;;;;;;5162541;28;20474;-50
2021/12/03 06:16:29;;;;;;;7.10;3.73;;;-0.60;99.90;;;;;;5157050;28;20209;-49
2021/12/03 06:19:00;;;;;;;4.60;2.67;;;-0.60;99.90;;;;;;5167603;28;20208;-50
2021/12/03 06:21:31;;;;;;;9.30;3.77;;;-0.70;99.90;;;;;;5155101;28;20256;-50
2021/12/03 06:24:02;;;;;;;4.30;2.63;;;-0.80;99.90;;;;;;5153147;28;20232;-49
2021/12/03 06:26:32;;;;;;;8.17;3.40;;;-0.80;99.90;;;;;;5154270;28;20181;-50
2021/12/03 06:29:03;;;;;;;3.20;2.87;;;-0.70;99.90;;;;;;5155189;28;20178;-49
2021/12/03 06:31:34;;;;;;;8.53;3.50;;;-0.70;99.90;;;;;;5160035;28;20189;-48
2021/12/03 06:34:04;;;;;;;18.53;4.00;;;-0.80;99.90;;;;;;5159962;28;20500;-48
2021/12/03 06:36:35;;;;;;;4.43;3.30;;;-0.70;99.90;;;;;;5158425;28;20685;-50
2021/12/03 06:39:05;;;;;;;6.60;3.57;;;-0.70;99.90;;;;;;5178045;28;20255;-48
2021/12/03 06:41:36;;;;;;;4.60;3.57;;;-0.60;99.90;;;;;;5158787;28;20248;-48
2021/12/03 06:44:08;;;;;;;12.63;3.60;;;-0.60;99.90;;;;;;5158701;28;20604;-49
2021/12/03 06:46:39;;;;;;;13.73;3.50;;;-0.50;99.90;;;;;;5140654;28;20184;-49
2021/12/03 06:49:09;;;;;;;3.70;3.40;;;-0.50;99.90;;;;;;5153127;28;20424;-48
2021/12/03 06:51:42;;;;;;;2.67;2.47;;;-0.50;99.90;;;;;;5148203;28;20278;-49
2021/12/03 06:54:14;;;;;;;8.17;3.37;;;-0.50;99.90;;;;;;5152989;28;20237;-49
2021/12/03 06:56:48;;;;;;;6.97;4.20;;;-0.50;99.90;;;;;;5156178;28;20451;-49
2021/12/03 06:59:20;;;;;;;9.87;3.40;;;-0.50;99.90;;;;;;5157281;28;20482;-49
2021/12/03 07:01:51;;;;;;;4.57;3.43;;;-0.50;99.90;;;;;;5154678;28;20455;-49
2021/12/03 07:04:22;;;;;;;8.80;3.73;;;-0.50;99.90;;;;;;5155807;28;20447;-51
2021/12/03 07:06:53;;;;;;;3.90;3.33;;;-0.50;99.90;;;;;;5177062;28;20432;-48
2021/12/03 07:09:24;;;;;;;11.93;4.27;;;-0.50;99.90;;;;;;5154813;28;20197;-49
2021/12/03 07:11:54;;;;;;;5.90;4.50;;;-0.50;99.90;;;;;;5171653;28;20196;-50
2021/12/03 07:14:25;;;;;;;11.20;4.40;;;-0.40;99.90;;;;;;5157431;28;20267;-50
2021/12/03 07:16:57;;;;;;;4.73;4.23;;;-0.30;99.90;;;;;;5159320;28;20212;-51
2021/12/03 07:19:28;;;;;;;10.33;4.83;;;-0.20;99.90;;;;;;5154773;28;20280;-51
2021/12/03 07:22:01;;;;;;;5.60;4.40;;;-0.20;99.90;;;;;;5156437;28;20553;-49
2021/12/03 07:24:33;;;;;;;7.53;4.03;;;-0.10;99.90;;;;;;5157346;28;20205;-50
2021/12/03 07:27:05;;;;;;;9.27;4.47;;;0.10;99.90;;;;;;5161400;28;20438;-50
2021/12/03 07:29:36;;;;;;;12.30;4.83;;;0.00;99.90;;;;;;5153944;28;20472;-50
2021/12/03 07:32:07;;;;;;;10.30;5.83;;;0.20;99.90;;;;;;5155786;28;20814;-49
2021/12/03 07:34:37;;;;;;;6.20;3.90;;;0.30;99.90;;;;;;5159972;28;20220;-49
2021/12/03 07:37:08;;;;;;;7.17;3.90;;;0.40;99.90;;;;;;5161319;28;20746;-50
2021/12/03 07:39:40;;;;;;;10.63;4.33;;;0.60;99.90;;;;;;5156731;28;20193;-49
2021/12/03 07:42:10;;;;;;;6.17;4.77;;;0.60;99.90;;;;;;5154457;28;20810;-51
2021/12/03 07:44:42;;;;;;;6.30;4.00;;;0.60;99.90;;;;;;5151124;28;20522;-48
2021/12/03 07:47:12;;;;;;;5.37;4.70;;;0.70;99.90;;;;;;5154062;28;20490;-49
2021/12/03 07:49:44;;;;;;;6.40;4.47;;;0.70;99.90;;;;;;5171409;28;20440;-50
2021/12/03 07:52:16;;;;;;;10.30;5.53;;;0.80;99.90;;;;;;5155217;28;20269;-49
2021/12/03 07:54:47;;;;;;;6.50;4.67;;;1.00;99.90;;;;;;5157885;28;20475;-50
2021/12/03 07:57:18;;;;;;;5.73;4.63;;;1.00;99.90;;;;;;5164317;28;20432;-49
2021/12/03 07:59:49;;;;;;;10.70;5.00;;;1.20;99.90;;;;;;5161129;28;20499;-50
2021/12/03 08:02:19;;;;;;;12.57;5.13;;;1.20;99.90;;;;;;5162847;28;20207;-48
2021/12/03 08:04:50;;;;;;;11.40;4.70;;;1.30;99.90;;;;;;5164934;28;20685;-50
2021/12/03 08:07:21;;;;;;;9.20;5.07;;;1.30;99.90;;;;;;5162048;28;20327;-49
2021/12/03 08:09:51;;;;;;;13.30;4.27;;;1.30;99.90;;;;;;5161135;28;20189;-51
2021/12/03 08:12:22;;;;;;;7.03;4.50;;;1.40;99.90;;;;;;5159439;28;20191;-49
2021/12/03 08:14:52;;;;;;;5.00;4.50;;;1.30;99.90;;;;;;5156222;28;20268;-51
2021/12/03 08:17:23;;;;;;;10.47;4.93;;;1.30;99.90;;;;;;5160973;28;20288;-49
2021/12/03 08:19:54;;;;;;;5.87;4.50;;;1.40;99.90;;;;;;5162169;28;20184;-50
2021/12/03 08:22:24;;;;;;;9.27;4.50;;;1.50;99.90;;;;;;5158608;28;20216;-48
2021/12/03 08:24:55;;;;;;;13.13;4.27;;;1.50;99.90;;;;;;5158098;28;20673;-50
2021/12/03 08:27:26;;;;;;;7.43;5.30;;;1.50;99.90;;;;;;5158908;28;20231;-50
2021/12/03 08:29:56;;;;;;;11.37;4.40;;;1.50;99.90;;;;;;5158930;28;20188;-49
2021/12/03 08:32:27;;;;;;;9.20;4.70;;;1.60;99.90;;;;;;5164222;28;20181;-50
2021/12/03 08:34:58;;;;;;;6.83;4.90;;;1.60;99.90;;;;;;5159426;28;20239;-49
2021/12/03 08:37:29;;;;;;;8.33;4.80;;;1.70;99.90;;;;;;5159430;28;20242;-50
2021/12/03 08:40:00;;;;;;;5.50;5.00;;;1.70;99.90;;;;;;5173160;28;20425;-49
2021/12/03 08:42:33;;;;;;;8.00;5.20;;;1.70;99.90;;;;;;5158467;28;20192;-48
2021/12/03 08:45:05;;;;;;;4.73;4.30;;;1.70;99.90;;;;;;5160772;28;20290;-51
2021/12/03 08:47:37;;;;;;;5.23;4.40;;;1.80;99.90;;;;;;5162241;28;20507;-50
2021/12/03 08:50:13;;;;;;;6.43;4.20;;;1.80;99.90;;;;;;5158790;28;20948;-50
2021/12/03 08:55:17;;;;;;;8.23;4.20;;;1.90;99.90;;;;;;5155222;28;20468;-49
2021/12/03 08:57:48;;;;;;;11.50;3.50;;;2.00;99.90;;;;;;5160910;28;20483;-50
2021/12/03 09:00:21;;;;;;;5.47;4.87;;;2.00;99.90;;;;;;5155382;28;20204;-50
2021/12/03 09:02:53;;;;;;;7.57;5.10;;;2.10;99.90;;;;;;5156576;28;20176;-50
2021/12/03 09:05:29;;;;;;;5.33;3.93;;;2.10;99.90;;;;;;5143399;28;20431;-50
2021/12/03 09:08:00;;;;;;;8.20;4.73;;;2.20;99.90;;;;;;5158932;28;20916;-50
2021/12/03 09:10:31;;;;;;;4.97;3.47;;;2.40;99.90;;;;;;5161947;28;20423;-50
2021/12/03 09:13:01;;;;;;;6.40;4.77;;;2.40;99.90;;;;;;5142680;28;20455;-52
2021/12/03 09:15:38;;;;;;;6.97;5.17;;;2.30;99.90;;;;;;5160459;28;20238;-50
2021/12/03 09:21:12;;;;;;;8.33;4.00;;;2.40;99.90;;;;;;5164467;28;20458;-49
2021/12/03 09:23:59;;;;;;;10.00;4.10;;;2.40;99.90;;;;;;5163528;28;20455;-50
2021/12/03 09:26:30;;;;;;;9.80;4.50;;;2.30;99.90;;;;;;5163862;28;20472;-51
2021/12/03 09:29:06;;;;;;;9.83;3.87;;;2.50;99.90;;;;;;5146276;28;20507;-50
2021/12/03 09:31:41;;;;;;;9.27;3.73;;;2.60;99.90;;;;;;5166853;28;20416;-50
2021/12/03 09:34:15;;;;;;;12.03;4.27;;;2.70;99.90;;;;;;5164088;28;20558;-50
2021/12/03 09:36:46;;;;;;;6.20;3.83;;;2.80;99.90;;;;;;5147721;28;20443;-51
2021/12/03 09:39:19;;;;;;;9.53;4.37;;;2.80;99.90;;;;;;5164257;28;20950;-50
2021/12/03 09:41:56;;;;;;;5.00;3.83;;;2.80;99.90;;;;;;5163188;28;20197;-50
2021/12/03 09:44:30;;;;;;;3.30;3.10;;;2.80;99.90;;;;;;5164522;28;20451;-50
2021/12/03 09:47:01;;;;;;;11.17;4.50;;;3.00;99.90;;;;;;5162613;28;20454;-49
2021/12/03 09:49:36;;;;;;;7.40;5.90;;;3.00;99.90;;;;;;5163447;28;20451;-48
2021/12/03 09:55:02;;;;;;;5.03;3.33;;;3.00;99.90;;;;;;5163744;28;20452;-49
2021/12/03 09:57:39;;;;;;;12.63;3.43;;;3.20;99.90;;;;;;5164580;28;20490;-51
2021/12/03 10:12:00;;;;;;;11.60;5.47;;;3.10;99.90;;;;;;5163739;28;20494;-48
2021/12/03 10:20:21;;;;;;;4.10;3.23;;;3.20;99.90;;;;;;5163641;28;20402;-50
2021/12/03 10:26:35;;;;;;;4.80;4.30;;;3.40;99.90;;;;;;5164247;28;20467;-50
2021/12/03 10:29:22;;;;;;;5.23;3.10;;;3.50;99.90;;;;;;5162672;28;20423;-50
2021/12/03 10:32:25;;;;;;;7.00;4.20;;;3.60;99.90;;;;;;5163787;28;20483;-50
2021/12/03 10:38:17;;;;;;;5.30;4.43;;;3.80;99.90;;;;;;5162973;28;20470;-52
2021/12/03 10:43:55;;;;;;;6.50;3.67;;;3.80;99.90;;;;;;5163984;28;20497;-49
2021/12/03 10:46:41;;;;;;;3.87;2.80;;;3.70;99.90;;;;;;5163331;28;20415;-49
2021/12/03 10:49:34;;;;;;;5.37;3.73;;;3.60;99.90;;;;;;5163455;28;20482;-51
2021/12/03 10:52:19;;;;;;;6.10;4.23;;;3.50;99.90;;;;;;5162277;28;20464;-49
2021/12/03 10:55:16;;;;;;;6.93;3.37;;;3.60;99.90;;;;;;5175857;28;20459;-50
2021/12/03 10:58:06;;;;;;;3.73;3.37;;;3.60;99.90;;;;;;5162722;28;21560;-52
2021/12/03 11:29:20;;;;;;;5.73;3.50;;;3.80;99.90;;;;;;5163368;28;20732;-51
2021/12/03 11:40:44;;;;;;;6.13;4.20;;;3.80;99.90;;;;;;5160650;28;20420;-51
2021/12/03 12:14:30;;;;;;;8.87;5.00;;;3.60;99.90;;;;;;5161583;28;20428;-51
2021/12/03 12:24:59;;;;;;;13.43;3.97;;;3.90;99.90;;;;;;5161874;28;20757;-51
2021/12/03 12:28:55;;;;;;;8.27;3.20;;;3.80;99.90;;;;;;5160292;28;20534;-51
2021/12/03 12:34:35;;;;;;;4.73;3.03;;;4.10;99.90;;;;;;5161788;28;20819;-50
2021/12/03 12:37:10;;;;;;;5.53;3.50;;;4.10;99.90;;;;;;5161437;28;20443;-50
2021/12/03 13:08:50;;;;;;;7.50;3.10;;;3.90;99.90;;;;;;5155232;28;20433;-50
2021/12/03 13:17:57;;;;;;;9.00;5.40;;;3.80;99.90;;;;;;5157452;28;20452;-49
2021/12/03 14:08:53;;;;;;;6.60;5.20;;;3.40;99.90;;;;;;5154613;28;20436;-50
2021/12/03 14:36:24;;;;;;;8.50;6.10;;;2.80;99.90;;;;;;5138514;28;20441;-49
2021/12/03 14:44:31;;;;;;;9.03;6.70;;;2.70;99.90;;;;;;5142999;28;20472;-50
2021/12/03 14:50:12;;;;;;;11.50;6.43;;;2.60;99.90;;;;;;5134047;28;20862;-52
2021/12/03 14:55:54;;;;;;;12.67;7.30;;;2.70;99.90;;;;;;5135224;28;20508;-49
2021/12/03 14:58:48;;;;;;;11.73;6.80;;;2.60;99.90;;;;;;5154690;28;20441;-52
2021/12/03 15:01:26;;;;;;;8.50;6.80;;;2.70;99.90;;;;;;5141258;28;20460;-51
2021/12/03 15:09:42;;;;;;;7.00;6.30;;;2.80;99.90;;;;;;5143153;28;20516;-51
2021/12/03 15:15:59;;;;;;;12.27;7.10;;;2.80;99.90;;;;;;5142748;28;20465;-51
2021/12/03 15:21:27;;;;;;;9.63;6.60;;;2.80;99.90;;;;;;5142429;28;20464;-49
2021/12/03 15:27:32;;;;;;;10.43;6.47;;;2.80;99.90;;;;;;5143399;28;20495;-50
2021/12/03 15:29:58;;;;;;;11.73;6.80;;;2.80;99.90;;;;;;5138821;28;20433;-51
2021/12/03 15:35:12;;;;;;;9.70;6.80;;;2.80;99.90;;;;;;5137816;28;20785;-52
2021/12/03 15:38:04;;;;;;;11.93;6.60;;;2.80;99.90;;;;;;5131628;28;20445;-52
2021/12/03 16:08:17;;;;;;;12.50;8.03;;;2.50;99.90;;;;;;5127957;28;20630;-51
2021/12/03 16:13:42;;;;;;;17.00;8.40;;;2.50;99.90;;;;;;5128820;28;20473;-51
2021/12/03 16:24:47;;;;;;;14.07;7.10;;;2.60;99.90;;;;;;5135573;28;21169;-50
2021/12/03 16:31:06;;;;;;;14.00;7.80;;;2.50;99.90;;;;;;5125237;28;20248;-50
2021/12/03 16:44:24;;;;;;;18.50;7.63;;;2.40;99.90;;;;;;5136485;28;20448;-50
2021/12/03 16:47:23;;;;;;;22.00;6.80;;;2.30;99.90;;;;;;5136622;28;20528;-52
2021/12/03 16:52:42;;;;;;;11.83;6.30;;;2.30;99.90;;;;;;5137746;28;21111;-49
2021/12/03 16:55:13;;;;;;;16.20;7.80;;;2.20;99.90;;;;;;5134338;28;20960;-50
2021/12/03 16:57:48;;;;;;;17.17;8.23;;;2.20;99.90;;;;;;5140223;28;20437;-52
2021/12/03 17:03:01;;;;;;;14.37;8.47;;;2.20;99.90;;;;;;5139229;28;20932;-50
2021/12/03 17:06:29;;;;;;;14.23;8.13;;;2.20;99.90;;;;;;5134334;28;20565;-52
2021/12/03 17:08:52;;;;;;;9.60;6.43;;;2.30;99.90;;;;;;5137597;28;20788;-51
2021/12/03 17:11:49;;;;;;;11.47;6.77;;;2.30;99.90;;;;;;5136243;28;20517;-49
2021/12/03 17:15:07;;;;;;;12.13;6.83;;;2.30;99.90;;;;;;5127880;28;20877;-51
2021/12/03 17:28:41;;;;;;;12.20;6.50;;;2.30;99.90;;;;;;5138360;28;20464;-51
2021/12/03 17:45:19;;;;;;;15.27;5.80;;;2.40;99.90;;;;;;5142866;28;20622;-52
2021/12/03 17:56:10;;;;;;;7.80;5.63;;;2.40;99.90;;;;;;5141409;28;20265;-49
2021/12/03 17:59:26;;;;;;;15.47;5.97;;;2.50;99.90;;;;;;5134232;28;20457;-49
2021/12/03 18:01:48;;;;;;;23.13;5.63;;;2.40;99.90;;;;;;5141273;28;20472;-47
2021/12/03 18:05:02;;;;;;;10.20;5.97;;;2.30;99.90;;;;;;5135927;28;20461;-49
2021/12/03 18:10:19;;;;;;;6.23;4.70;;;2.40;99.90;;;;;;5143607;28;20544;-51
2021/12/03 18:46:51;;;;;;;10.40;5.70;;;2.40;99.90;;;;;;5133751;28;20476;-52
2021/12/03 18:56:56;;;;;;;7.83;6.13;;;2.30;99.90;;;;;;5139227;28;20440;-52
2021/12/03 18:59:27;;;;;;;24.70;6.10;;;2.30;99.90;;;;;;5155011;28;20602;-51
2021/12/03 19:01:59;;;;;;;7.63;5.23;;;2.30;99.90;;;;;;5136351;28;20543;-52
2021/12/03 19:04:37;;;;;;;8.80;6.30;;;2.30;99.90;;;;;;5131103;28;20777;-53
2021/12/03 19:07:12;;;;;;;12.13;7.53;;;2.30;99.90;;;;;;5140365;28;20460;-50
2021/12/03 19:09:47;;;;;;;6.87;5.07;;;2.30;99.90;;;;;;5138600;28;20908;-52
2021/12/03 19:12:29;;;;;;;13.60;6.53;;;2.20;99.90;;;;;;5140996;28;20468;-52
2021/12/03 19:15:01;;;;;;;13.03;6.63;;;2.20;99.90;;;;;;5135475;28;20495;-53
2021/12/03 19:17:37;;;;;;;9.37;7.23;;;2.10;99.90;;;;;;5131888;28;20441;-49
2021/12/03 19:20:12;;;;;;;10.37;7.23;;;2.10;99.90;;;;;;5137957;28;20448;-50
2021/12/03 19:22:43;;;;;;;14.30;6.93;;;2.10;99.90;;;;;;5138708;28;20579;-51
2021/12/03 19:25:13;;;;;;;10.43;6.23;;;2.20;99.90;;;;;;5134716;28;20548;-51
2021/12/03 19:27:44;;;;;;;7.00;6.17;;;2.30;99.90;;;;;;5137200;28;20259;-50
2021/12/03 19:30:15;;;;;;;9.60;6.47;;;2.20;99.90;;;;;;5136370;28;20185;-51
2021/12/03 19:32:46;;;;;;;10.13;7.53;;;2.30;99.90;;;;;;5133138;28;20445;-52
2021/12/03 19:35:17;;;;;;;7.63;6.43;;;2.30;99.90;;;;;;5137733;28;20488;-51
2021/12/03 19:37:51;;;;;;;11.20;6.60;;;2.40;99.90;;;;;;5136012;28;20189;-52
2021/12/03 19:40:23;;;;;;;15.77;7.90;;;2.40;99.90;;;;;;5139557;28;20178;-53
2021/12/03 19:42:59;;;;;;;12.00;7.90;;;2.40;99.90;;;;;;5137945;28;20961;-50
2021/12/03 19:45:33;;;;;;;12.33;6.67;;;2.60;99.90;;;;;;5153582;28;20804;-52
2021/12/03 19:48:10;;;;;;;12.57;6.73;;;2.60;99.90;;;;;;5134327;28;20438;-53
2021/12/03 19:50:47;;;;;;;13.10;6.83;;;2.60;99.90;;;;;;5136448;28;20483;-51